Terminal Aerodrome Forecast
Issued by NWS

Home | Current Version | Previous Version | Text Only | Print | Product List | Glossary On
Versions: 1 2 3 4 5 6 7 8 9 10 11 12 13 14 15 16 17 18 19 20 21
202
FTUS43 KOAX 231720
TAFCDR
TAF
KCDR 231720Z 2318/2418 02009KT 3SM BR OVC011
      TEMPO 2318/2322 1SM BR OVC008
     FM232200 36008KT P6SM OVC008
      TEMPO 2322/2324 3SM BR
     FM240000 35007KT 2SM BR OVC009
     FM241500 02007KT 5SM BR OVC015=

USA.gov is the U.S. government's official web portal to all federal, state and local government web resources and services.